createdAt,value
2022-11-04T00:02:18.891Z,100263.47
2022-11-04T00:04:47.328Z,100262.84
2022-11-04T00:07:29.766Z,100255.38
2022-11-04T00:09:58.188Z,100255.56
2022-11-04T00:12:25.596Z,100258.56
2022-11-04T00:15:17.112Z,100275.31
2022-11-04T00:17:45.217Z,100275.50
2022-11-04T00:20:31.142Z,100281.84
2022-11-04T00:23:17.192Z,100290.00
2022-11-04T00:26:03.682Z,100296.34
2022-11-04T00:28:44.706Z,100297.28
2022-11-04T00:31:32.184Z,100314.69
2022-11-04T00:34:00.957Z,100315.44
2022-11-04T00:36:30.098Z,100322.38
2022-11-04T00:38:59.353Z,100330.22
2022-11-04T00:41:28.380Z,100343.50
2022-11-04T00:43:59.345Z,100337.59
2022-11-04T00:46:31.620Z,100326.00
2022-11-04T00:49:01.140Z,100342.91
2022-11-04T00:51:29.987Z,100349.25
2022-11-04T00:53:59.389Z,100345.03
2022-11-04T00:56:28.048Z,100350.38
2022-11-04T00:58:56.436Z,100364.41
2022-11-04T01:01:25.209Z,100363.81
2022-11-04T01:03:55.575Z,100378.00
2022-11-04T01:06:27.527Z,100372.28
2022-11-04T01:09:00.484Z,100382.38
2022-11-04T01:11:31.147Z,100381.84
2022-11-04T01:13:59.820Z,100394.94
2022-11-04T01:16:29.687Z,100408.97
2022-11-04T01:19:00.406Z,100416.06
2022-11-04T01:21:29.104Z,100412.56
2022-11-04T01:23:58.063Z,100424.81
2022-11-04T01:26:27.495Z,100429.31
2022-11-04T01:28:57.437Z,100444.06
2022-11-04T01:31:27.566Z,100452.94
2022-11-04T01:33:57.381Z,100450.47
2022-11-04T01:36:29.129Z,100462.88
2022-11-04T01:38:58.139Z,100476.91
2022-11-04T01:41:30.276Z,100489.28
2022-11-04T01:44:00.633Z,100493.00
2022-11-04T01:46:38.826Z,100502.63
2022-11-04T01:49:25.395Z,100502.13
2022-11-04T01:52:00.307Z,100506.66
2022-11-04T01:54:30.268Z,100508.59
2022-11-04T01:57:02.313Z,100520.06
2022-11-04T01:59:35.954Z,100523.59
2022-11-04T02:02:05.364Z,100524.53
2022-11-04T02:04:35.246Z,100528.91
2022-11-04T02:07:10.167Z,100534.38
2022-11-04T02:09:41.208Z,100554.53
2022-11-04T02:12:27.576Z,100557.22
2022-11-04T02:14:57.332Z,100569.59
2022-11-04T02:17:39.927Z,100564.31
2022-11-04T02:20:36.328Z,100576.69
2022-11-04T02:23:34.217Z,100588.22
2022-11-04T02:26:39.915Z,100592.16
2022-11-04T02:29:42.385Z,100598.38
2022-11-04T02:32:17.969Z,100607.31
2022-11-04T02:34:57.284Z,100608.22
2022-11-04T02:37:37.739Z,100618.81
2022-11-04T02:40:20.758Z,100610.19
2022-11-04T02:42:59.061Z,100616.53
2022-11-04T02:45:39.429Z,100623.50
2022-11-04T02:48:12.554Z,100624.38
2022-11-04T02:50:46.928Z,100624.50
2022-11-04T02:53:20.358Z,100633.28
2022-11-04T02:55:52.447Z,100635.94
2022-11-04T02:58:26.249Z,100655.25
2022-11-04T03:00:59.316Z,100652.63
2022-11-04T03:03:32.840Z,100651.84
2022-11-04T03:06:04.705Z,100670.06
2022-11-04T03:08:36.640Z,100674.47
2022-11-04T03:11:10.312Z,100666.66
2022-11-04T03:13:42.744Z,100678.81
2022-11-04T03:16:17.335Z,100675.13
2022-11-04T03:18:57.913Z,100678.75
2022-11-04T03:21:28.901Z,100683.97
2022-11-04T03:23:57.635Z,100684.72
2022-11-04T03:26:31.673Z,100691.88
2022-11-04T03:29:13.834Z,100689.25
2022-11-04T03:31:50.702Z,100695.41
2022-11-04T03:34:19.215Z,100694.56
2022-11-04T03:36:48.185Z,100699.69
2022-11-04T03:39:17.057Z,100697.97
2022-11-04T03:41:51.012Z,100696.34
2022-11-04T03:44:19.484Z,100705.00
2022-11-04T03:46:49.969Z,100712.94
2022-11-04T03:49:19.240Z,100712.94
2022-11-04T03:51:47.768Z,100704.38
2022-11-04T03:54:17.543Z,100712.94
2022-11-04T03:57:07.970Z,100713.06
2022-11-04T03:59:57.316Z,100719.22
2022-11-04T04:02:41.287Z,100740.97
2022-11-04T04:05:19.055Z,100739.19
2022-11-04T04:07:54.225Z,100745.41
2022-11-04T04:10:42.549Z,100757.59
2022-11-04T04:13:23.664Z,100768.84
2022-11-04T04:15:59.002Z,100767.06
2022-11-04T04:18:35.880Z,100769.38
2022-11-04T04:21:09.212Z,100778.94
2022-11-04T04:23:57.143Z,100779.84
2022-11-04T04:26:44.884Z,100786.84
2022-11-04T04:29:15.257Z,100792.97
2022-11-04T04:31:58.032Z,100800.06
2022-11-04T04:34:30.511Z,100807.19
2022-11-04T04:37:04.067Z,100810.00
2022-11-04T04:39:58.333Z,100830.81
2022-11-04T04:42:44.383Z,100837.03
2022-11-04T04:45:23.030Z,100843.25
2022-11-04T04:47:52.726Z,100839.78
2022-11-04T04:50:24.085Z,100843.31
2022-11-04T04:52:54.971Z,100837.19
2022-11-04T04:55:24.064Z,100850.22
2022-11-04T04:57:52.590Z,100850.34
2022-11-04T05:00:22.808Z,100865.91
2022-11-04T05:02:51.182Z,100865.91
2022-11-04T05:05:20.275Z,100864.25
2022-11-04T05:07:50.240Z,100864.34
2022-11-04T05:10:19.598Z,100877.47
2022-11-04T05:13:05.550Z,100881.91
2022-11-04T05:15:34.177Z,100893.16
2022-11-04T05:18:04.207Z,100892.50
2022-11-04T05:20:34.407Z,100897.78
2022-11-04T05:23:04.836Z,100903.84
2022-11-04T05:25:33.655Z,100899.53
2022-11-04T05:28:02.948Z,100912.59
2022-11-04T05:30:31.551Z,100930.78
2022-11-04T05:33:03.595Z,100923.97
2022-11-04T05:35:34.636Z,100923.84
2022-11-04T05:38:04.802Z,100917.69
2022-11-04T05:40:33.277Z,100932.56
2022-11-04T05:43:02.526Z,100936.94
2022-11-04T05:45:32.338Z,100935.31
2022-11-04T05:48:01.811Z,100935.16
2022-11-04T05:50:31.566Z,100939.69
2022-11-04T05:53:00.825Z,100949.34
2022-11-04T05:55:30.878Z,100948.38
2022-11-04T05:57:59.730Z,100953.59
2022-11-04T06:00:29.509Z,100962.47
2022-11-04T06:02:58.832Z,100952.69
2022-11-04T06:05:28.056Z,100960.63
2022-11-04T06:07:57.806Z,100973.84
2022-11-04T06:10:27.520Z,100977.41
2022-11-04T06:12:57.856Z,100978.19
2022-11-04T06:15:26.572Z,100974.72
2022-11-04T06:17:55.874Z,100976.50
2022-11-04T06:20:24.443Z,100968.53
2022-11-04T06:22:53.252Z,100977.22
2022-11-04T06:25:21.969Z,100975.25
2022-11-04T06:27:50.596Z,100975.25
2022-11-04T06:30:20.788Z,100990.00
2022-11-04T06:32:49.479Z,100979.44
2022-11-04T06:35:18.117Z,100969.00
2022-11-04T06:37:46.726Z,100970.66
2022-11-04T06:40:15.491Z,100965.41
2022-11-04T06:42:45.429Z,100963.50
2022-11-04T06:45:13.976Z,100970.50
2022-11-04T06:47:43.850Z,100971.50
2022-11-04T06:50:15.149Z,100982.78
2022-11-04T06:52:44.186Z,100973.31
2022-11-04T06:55:12.904Z,100978.47
2022-11-04T06:57:42.264Z,100982.81
2022-11-04T07:00:12.453Z,100996.75
2022-11-04T07:02:41.219Z,100993.34
2022-11-04T07:05:12.348Z,101001.19
2022-11-04T07:07:40.671Z,101012.53
2022-11-04T07:10:10.105Z,101021.09
2022-11-04T07:12:38.959Z,101025.53
2022-11-04T07:15:09.396Z,101021.22
2022-11-04T07:17:38.281Z,101027.22
2022-11-04T07:20:08.659Z,101026.44
2022-11-04T07:22:39.465Z,101021.22
2022-11-04T07:25:11.315Z,101023.84
2022-11-04T07:27:42.512Z,101026.44
2022-11-04T07:30:13.286Z,101023.84
2022-11-04T07:32:41.948Z,101040.34
2022-11-04T07:35:11.648Z,101043.78
2022-11-04T07:37:41.422Z,101040.34
2022-11-04T07:40:12.518Z,101046.41
2022-11-04T07:42:41.373Z,101047.28
2022-11-04T07:45:10.536Z,101053.16
2022-11-04T07:47:40.988Z,101053.88
2022-11-04T07:50:13.759Z,101053.69
2022-11-04T07:52:51.254Z,101067.28
2022-11-04T07:55:20.560Z,101070.53
2022-11-04T07:57:50.138Z,101063.44
2022-11-04T08:00:19.282Z,101068.47
2022-11-04T08:02:48.418Z,101075.25
2022-11-04T08:05:19.328Z,101068.06
2022-11-04T08:07:51.539Z,101069.47
2022-11-04T08:10:20.159Z,101088.25
2022-11-04T08:12:57.031Z,101086.56
2022-11-04T08:15:29.895Z,101093.16
2022-11-04T08:18:06.585Z,101102.16
2022-11-04T08:20:36.925Z,101106.88
2022-11-04T08:23:13.701Z,101116.19
2022-11-04T08:25:42.155Z,101120.28
2022-11-04T08:28:17.937Z,101116.19
2022-11-04T08:30:57.549Z,101106.72
2022-11-04T08:33:28.731Z,101107.72
2022-11-04T08:36:06.411Z,101134.63
2022-11-04T08:38:37.073Z,101140.34
2022-11-04T08:41:09.134Z,101141.94
2022-11-04T08:43:37.920Z,101144.69
2022-11-04T08:46:09.241Z,101151.69
2022-11-04T08:48:39.369Z,101139.53
2022-11-04T08:51:12.636Z,101134.00
2022-11-04T08:53:42.993Z,101135.38
2022-11-04T08:56:17.802Z,101145.50
2022-11-04T08:58:48.094Z,101138.16
2022-11-04T09:01:17.925Z,101145.72
2022-11-04T09:03:47.340Z,101136.72
2022-11-04T09:06:20.613Z,101134.59
2022-11-04T09:08:55.504Z,101148.94
2022-11-04T09:11:24.197Z,101145.34
2022-11-04T09:13:53.524Z,101146.81
2022-11-04T09:16:22.381Z,101158.63
2022-11-04T09:18:51.461Z,101162.44
2022-11-04T09:21:22.165Z,101161.59
2022-11-04T09:23:54.484Z,101155.72
2022-11-04T09:26:24.519Z,101159.75
2022-11-04T09:28:56.467Z,101157.44
2022-11-04T09:31:40.410Z,101157.25
2022-11-04T09:34:15.529Z,101159.97
2022-11-04T09:36:45.730Z,101164.56
2022-11-04T09:39:15.632Z,101152.59
2022-11-04T09:42:11.084Z,101163.31
2022-11-04T09:45:21.266Z,101165.53
2022-11-04T09:47:44.673Z,101162.50
2022-11-04T09:50:22.979Z,101152.03
2022-11-04T09:53:06.029Z,101135.72
2022-11-04T09:55:43.256Z,101132.16
2022-11-04T09:58:15.309Z,101130.06
2022-11-04T10:00:53.813Z,101121.66
2022-11-04T10:03:38.870Z,101111.72
2022-11-04T10:06:28.856Z,101099.50
2022-11-04T10:09:15.895Z,101111.06
2022-11-04T10:12:00.094Z,101097.78
2022-11-04T10:14:44.011Z,101109.69
2022-11-04T10:17:31.643Z,101102.56
2022-11-04T10:20:33.033Z,101115.13
2022-11-04T10:23:09.842Z,101117.22
2022-11-04T10:25:49.349Z,101119.34
2022-11-04T10:28:23.732Z,101112.59
2022-11-04T10:30:53.964Z,101105.47
2022-11-04T10:33:32.840Z,101110.84
2022-11-04T10:36:13.617Z,101114.00
2022-11-04T10:38:49.180Z,101111.06
2022-11-04T11:06:30.561Z,101094.97
2022-11-04T11:09:20.008Z,101095.69
2022-11-04T11:26:42.006Z,101074.56
2022-11-04T11:42:13.164Z,101086.91
2022-11-04T11:47:47.042Z,101083.53
2022-11-04T11:50:24.821Z,101075.88
2022-11-04T12:45:17.710Z,101039.56
2022-11-04T12:47:48.201Z,101045.25
2022-11-04T12:50:49.561Z,101045.88
2022-11-04T12:53:30.286Z,101046.66
2022-11-04T12:56:07.269Z,101059.31
2022-11-04T12:59:07.183Z,101040.06
2022-11-04T13:01:43.514Z,101040.66
2022-11-04T13:04:17.052Z,101032.56
2022-11-04T13:06:50.671Z,101024.00
2022-11-04T13:09:28.459Z,101040.06
2022-11-04T13:12:04.151Z,101029.13
2022-11-04T13:14:39.685Z,101034.19
2022-11-04T13:17:15.236Z,101033.28
2022-11-04T13:19:50.162Z,101044.34
2022-11-04T13:22:24.735Z,101044.63
2022-11-04T13:25:00.594Z,101044.47
2022-11-04T13:27:34.651Z,101045.50
2022-11-04T13:30:09.594Z,101037.94
2022-11-04T13:32:55.135Z,101032.44
2022-11-04T13:35:36.901Z,101032.22
2022-11-04T13:38:12.882Z,101036.28
2022-11-04T13:40:52.809Z,101047.28
2022-11-04T13:43:41.918Z,101045.66
2022-11-04T13:46:24.211Z,101048.16
2022-11-04T13:49:02.411Z,101032.78
2022-11-04T13:51:44.894Z,101038.84
2022-11-04T13:54:29.651Z,101033.47
2022-11-04T13:57:07.914Z,101043.63
2022-11-04T13:59:37.502Z,101045.34
2022-11-04T14:02:39.257Z,101040.66
2022-11-04T14:06:05.387Z,101047.69
2022-11-04T14:08:35.998Z,101043.31
2022-11-04T14:11:10.463Z,101047.28
2022-11-04T14:14:06.316Z,101036.44
2022-11-04T14:16:47.463Z,101043.75
2022-11-04T14:19:58.813Z,101021.38
2022-11-04T14:22:34.012Z,101029.69
2022-11-04T14:25:21.315Z,101033.47
2022-11-04T14:27:51.954Z,101038.63
2022-11-04T14:30:37.131Z,101037.28
2022-11-04T14:33:19.239Z,101042.78
2022-11-04T14:35:49.251Z,101045.59
2022-11-04T14:38:28.604Z,101055.06
2022-11-04T14:41:22.893Z,101055.59
2022-11-04T14:43:52.233Z,101063.97
2022-11-04T14:46:24.074Z,101072.00
2022-11-04T14:48:56.002Z,101069.13
2022-11-04T14:51:28.510Z,101073.56
2022-11-04T14:54:05.427Z,101061.75
2022-11-04T14:56:36.127Z,101061.13
2022-11-04T14:59:07.272Z,101076.22
2022-11-04T15:01:38.690Z,101075.50
2022-11-04T15:04:19.870Z,101083.94
2022-11-04T15:06:56.250Z,101071.88
2022-11-04T15:09:27.072Z,101085.38
2022-11-04T15:12:25.072Z,101088.88
2022-11-04T15:14:54.265Z,101084.38
2022-11-04T15:17:25.768Z,101078.88
2022-11-04T15:19:58.076Z,101069.81
2022-11-04T15:22:26.621Z,101074.53
2022-11-04T15:24:55.184Z,101071.06
2022-11-04T15:27:30.370Z,101069.03
2022-11-04T15:30:00.769Z,101072.09
2022-11-04T15:32:30.230Z,101061.72
2022-11-04T15:34:59.892Z,101064.81
2022-11-04T15:37:30.891Z,101059.53
2022-11-04T15:40:00.925Z,101054.66
2022-11-04T15:42:40.924Z,101065.22
2022-11-04T15:45:33.416Z,101065.53
2022-11-04T15:48:34.265Z,101056.75
2022-11-04T15:51:21.777Z,101069.22
2022-11-04T15:54:29.929Z,101074.41
2022-11-04T16:17:22.709Z,101067.19
2022-11-04T16:30:56.763Z,101065.47
2022-11-04T16:33:27.046Z,101077.09
2022-11-04T16:35:56.005Z,101064.00
2022-11-04T16:38:24.266Z,101064.94
2022-11-04T16:40:53.122Z,101069.38
2022-11-04T16:43:23.282Z,101057.88
2022-11-04T16:45:54.103Z,101055.53
2022-11-04T16:48:25.072Z,101053.03
2022-11-04T16:50:55.041Z,101054.81
2022-11-04T16:53:23.461Z,101049.63
2022-11-04T16:55:52.745Z,101052.06
2022-11-04T16:58:21.496Z,101053.88
2022-11-04T17:00:50.190Z,101056.69
2022-11-04T17:03:22.524Z,101060.72
2022-11-04T17:05:51.973Z,101066.09
2022-11-04T17:08:22.469Z,101067.25
2022-11-04T17:10:51.244Z,101072.75
2022-11-04T17:13:20.155Z,101081.38
2022-11-04T17:15:51.588Z,101083.59
2022-11-04T17:18:20.828Z,101083.78
2022-11-04T17:20:52.188Z,101090.00
2022-11-04T17:23:23.473Z,101095.34
2022-11-04T17:25:53.102Z,101086.53
2022-11-04T17:28:21.773Z,101088.09
2022-11-04T17:30:50.830Z,101095.16
2022-11-04T17:33:21.294Z,101091.59
2022-11-04T17:35:52.623Z,101094.22
2022-11-04T17:38:24.666Z,101090.09
2022-11-04T17:41:10.243Z,101101.09
2022-11-04T17:43:56.298Z,101098.22
2022-11-04T17:46:38.398Z,101106.97
2022-11-04T17:49:11.452Z,101115.84
2022-11-04T17:51:41.207Z,101117.22
2022-11-04T17:54:11.961Z,101108.75
2022-11-04T17:56:41.932Z,101108.66
2022-11-04T17:59:13.370Z,101108.75
2022-11-04T18:01:43.620Z,101116.00
2022-11-04T18:04:15.681Z,101131.00
2022-11-04T18:06:44.850Z,101134.66
2022-11-04T18:09:15.841Z,101123.38
2022-11-04T18:12:02.488Z,101131.00
2022-11-04T18:14:34.122Z,101129.78
2022-11-04T18:17:03.352Z,101115.84
2022-11-04T18:19:32.009Z,101111.34
2022-11-04T18:22:00.703Z,101121.13
2022-11-04T18:24:30.778Z,101117.84
2022-11-04T18:27:01.113Z,101123.22
2022-11-04T18:29:29.502Z,101114.47
2022-11-04T18:31:57.927Z,101104.97
2022-11-04T18:34:27.011Z,101105.16
2022-11-04T18:36:56.531Z,101103.25
2022-11-04T18:39:25.166Z,101100.63
2022-11-04T18:41:55.408Z,101103.47
2022-11-04T18:44:24.507Z,101099.03
2022-11-04T18:46:53.087Z,101108.81
2022-11-04T18:49:22.268Z,101113.72
2022-11-04T18:51:50.586Z,101105.34
2022-11-04T18:54:20.508Z,101105.44
2022-11-04T18:56:48.928Z,101110.72
2022-11-04T18:59:19.082Z,101106.69
2022-11-04T19:01:47.563Z,101105.00
2022-11-04T19:04:16.263Z,101099.81
2022-11-04T19:06:46.144Z,101110.56
2022-11-04T19:09:45.947Z,101116.69
2022-11-04T19:12:24.192Z,101119.91
2022-11-04T19:14:54.988Z,101108.69
2022-11-04T19:17:24.109Z,101105.22
2022-11-04T19:19:52.805Z,101113.19
2022-11-04T19:22:21.047Z,101126.47
2022-11-04T19:24:49.971Z,101123.44
2022-11-04T19:27:19.793Z,101126.28
2022-11-04T19:29:49.014Z,101131.75
2022-11-04T19:32:18.870Z,101116.72
2022-11-04T19:34:47.372Z,101112.06
2022-11-04T19:37:15.790Z,101115.47
2022-11-04T19:39:44.285Z,101125.44
2022-11-04T19:42:31.291Z,101123.56
2022-11-04T19:45:00.452Z,101123.09
2022-11-04T19:47:30.269Z,101140.38
2022-11-04T19:49:58.649Z,101127.84
2022-11-04T19:52:27.888Z,101123.34
2022-11-04T19:54:57.845Z,101121.44
2022-11-04T19:57:27.398Z,101111.47
2022-11-04T19:59:55.876Z,101112.34
2022-11-04T20:02:24.213Z,101110.16
2022-11-04T20:04:54.610Z,101106.59
2022-11-04T20:07:22.996Z,101094.19
2022-11-04T20:09:51.510Z,101101.50
2022-11-04T20:12:36.929Z,101100.28
2022-11-04T20:15:05.736Z,101094.06
2022-11-04T20:17:34.440Z,101095.09
2022-11-04T20:20:05.385Z,101080.72
2022-11-04T20:22:33.868Z,101081.25
2022-11-04T20:25:02.295Z,101090.31
2022-11-04T20:27:31.445Z,101072.81
2022-11-04T20:29:59.762Z,101078.16
2022-11-04T20:32:28.993Z,101081.91
2022-11-04T20:34:57.735Z,101090.59
2022-11-04T20:37:28.078Z,101091.44
2022-11-04T20:39:56.634Z,101089.47
2022-11-04T20:42:24.934Z,101087.56
2022-11-04T20:44:53.880Z,101084.72
2022-11-04T20:47:22.825Z,101070.59
2022-11-04T20:49:52.509Z,101074.19
2022-11-04T20:52:21.032Z,101065.53
2022-11-04T20:54:51.120Z,101061.31
2022-11-04T20:57:20.089Z,101062.81
2022-11-04T20:59:48.830Z,101073.13
2022-11-04T21:02:17.900Z,101077.25
2022-11-04T21:04:46.296Z,101070.31
2022-11-04T21:07:16.532Z,101060.41
2022-11-04T21:09:45.304Z,101056.53
2022-11-04T21:12:17.734Z,101049.34
2022-11-04T21:14:49.130Z,101054.84
2022-11-04T21:17:17.500Z,101048.63
2022-11-04T21:19:49.116Z,101044.19
2022-11-04T21:22:19.639Z,101052.09
2022-11-04T21:24:49.098Z,101048.50
2022-11-04T21:27:18.849Z,101036.75
2022-11-04T21:29:47.347Z,101044.00
2022-11-04T21:32:16.251Z,101043.16
2022-11-04T21:34:47.081Z,101036.63
2022-11-04T21:37:16.893Z,101037.03
2022-11-04T21:39:51.573Z,101041.38
2022-11-04T21:42:22.816Z,101042.94
2022-11-04T21:44:52.455Z,101044.34
2022-11-04T21:47:22.110Z,101042.97
2022-11-04T21:49:52.082Z,101048.75
2022-11-04T21:52:21.701Z,101038.50
2022-11-04T21:54:51.792Z,101033.69
2022-11-04T21:57:27.788Z,101037.28
2022-11-04T21:59:59.582Z,101037.59
2022-11-04T22:02:38.852Z,101036.31
2022-11-04T22:05:13.749Z,101032.84
2022-11-04T22:07:59.530Z,101030.41
2022-11-04T22:10:30.712Z,101024.59
2022-11-04T22:13:01.702Z,101018.47
2022-11-04T22:15:49.816Z,101008.88
2022-11-04T22:18:18.331Z,100996.75
2022-11-04T22:20:55.188Z,101001.91
2022-11-04T22:23:25.541Z,100990.44
2022-11-04T22:26:07.625Z,100989.38
2022-11-04T22:28:39.393Z,100992.84
2022-11-04T22:31:09.845Z,100982.41
2022-11-04T22:33:39.322Z,100963.84
2022-11-04T22:36:15.737Z,100971.56
2022-11-04T22:38:45.045Z,100974.09
2022-11-04T22:41:20.549Z,100962.50
2022-11-04T22:43:51.685Z,100971.44
2022-11-04T22:46:30.963Z,100959.97
2022-11-04T22:49:00.371Z,100952.91
2022-11-04T22:51:31.956Z,100954.91
2022-11-04T22:54:06.420Z,100947.09
2022-11-04T22:56:42.430Z,100946.88
2022-11-04T22:59:19.071Z,100941.41
2022-11-04T23:01:48.131Z,100940.25
2022-11-04T23:04:18.797Z,100935.19
2022-11-04T23:06:49.222Z,100929.91
2022-11-04T23:09:18.331Z,100928.88
2022-11-04T23:12:16.045Z,100924.53
2022-11-04T23:15:03.204Z,100921.28
2022-11-04T23:17:48.676Z,100918.63
2022-11-04T23:20:18.945Z,100918.84
2022-11-04T23:23:06.148Z,100910.81
2022-11-04T23:25:35.387Z,100909.66
2022-11-04T23:28:27.812Z,100900.59
2022-11-04T23:30:59.748Z,100903.88
2022-11-04T23:33:41.973Z,100896.81
2022-11-04T23:36:25.329Z,100883.72
2022-11-04T23:38:53.679Z,100885.50
2022-11-04T23:41:40.547Z,100886.34
2022-11-04T23:44:29.799Z,100874.84
2022-11-04T23:47:17.275Z,100873.06
2022-11-04T23:50:02.872Z,100872.00
2022-11-04T23:52:55.371Z,100861.66
2022-11-04T23:55:41.687Z,100854.78
2022-11-04T23:58:28.535Z,100845.72
